createdAt,value
2018-11-20T00:04:06.927Z,4.3
2018-11-20T00:09:34.370Z,4.3
2018-11-20T00:15:02.057Z,4.3
2018-11-20T00:25:57.939Z,4.4
2018-11-20T00:31:31.419Z,4.4
2018-11-20T00:36:53.538Z,4.4
2018-11-20T00:42:26.100Z,4.4
2018-11-20T00:47:49.418Z,4.4
2018-11-20T00:53:21.849Z,4.4
2018-11-20T00:58:45.313Z,4.3
2018-11-20T01:04:13.697Z,4.4
2018-11-20T01:09:46.527Z,4.4
2018-11-20T01:15:14.637Z,4.4
2018-11-20T01:20:42.010Z,4.3
2018-11-20T01:26:04.433Z,4.2
2018-11-20T01:31:32.848Z,4.1
2018-11-20T01:37:00.612Z,4.1
2018-11-20T01:42:28.911Z,4
2018-11-20T01:47:56.296Z,4.1
2018-11-20T01:53:24.470Z,4.1
2018-11-20T01:58:52.897Z,4.2
2018-11-20T02:04:21.377Z,4.2
2018-11-20T02:09:49.986Z,4.2
2018-11-20T02:15:34.184Z,4.2
2018-11-20T02:20:50.594Z,4.2
2018-11-20T02:26:12.956Z,4.2
2018-11-20T02:31:45.461Z,4.2
2018-11-20T02:37:13.820Z,4.2
2018-11-20T02:42:37.247Z,4.2
2018-11-20T02:48:05.944Z,4.3
2018-11-20T02:53:33.382Z,4.3
2018-11-20T02:59:06.564Z,4.3
2018-11-20T03:04:30.264Z,4.3
2018-11-20T03:09:58.533Z,4.4
2018-11-20T03:15:26.866Z,4.4
2018-11-20T03:20:54.364Z,4.4
2018-11-20T03:26:26.807Z,4.5
2018-11-20T03:31:55.366Z,4.5
2018-11-20T03:37:23.712Z,4.5
2018-11-20T03:42:46.172Z,4.5
2018-11-20T03:48:18.894Z,4.5
2018-11-20T03:53:42.352Z,4.5
2018-11-20T03:59:09.839Z,4.5
2018-11-20T04:04:42.268Z,4.6
2018-11-20T04:10:04.626Z,4.6
2018-11-20T04:15:37.006Z,4.6
2018-11-20T04:21:00.375Z,4.6
2018-11-20T07:04:59.323Z,4.5
2018-11-20T07:10:32.145Z,4.6
2018-11-20T07:15:56.050Z,4.6
2018-11-20T07:21:29.023Z,4.6
2018-11-20T07:26:52.470Z,4.6
2018-11-20T07:32:19.937Z,4.7
2018-11-20T07:37:47.648Z,4.7
2018-11-20T07:43:21.036Z,4.7
2018-11-20T07:48:43.332Z,4.7
2018-11-20T07:54:11.802Z,4.7
2018-11-20T07:59:40.299Z,4.7
2018-11-20T08:05:07.943Z,4.7
2018-11-20T08:10:36.376Z,4.7
2018-11-20T08:16:04.661Z,4.7
2018-11-20T08:21:33.034Z,4.7
2018-11-20T08:27:05.822Z,4.8
2018-11-20T08:32:27.928Z,4.8
2018-11-20T08:37:56.473Z,4.7
2018-11-20T08:43:28.899Z,4.7
2018-11-20T08:48:51.415Z,4.7
2018-11-20T08:54:18.845Z,4.7
2018-11-20T08:59:51.328Z,4.7
2018-11-20T09:05:14.804Z,4.8
2018-11-20T09:10:42.610Z,4.8
2018-11-20T09:16:15.792Z,4.8
2018-11-20T09:21:38.285Z,4.9
2018-11-20T09:27:06.959Z,5
2018-11-20T09:32:40.205Z,5
2018-11-20T09:38:03.666Z,5
2018-11-20T09:43:32.392Z,5
2018-11-20T09:48:59.607Z,5.1
2018-11-20T09:54:27.135Z,5.1
2018-11-20T09:59:54.742Z,5.1
2018-11-20T10:05:22.371Z,5.1
2018-11-20T10:10:50.536Z,5.1
2018-11-20T10:16:19.310Z,5.1
2018-11-20T10:21:52.576Z,5.1
2018-11-20T10:27:14.980Z,5
2018-11-20T10:32:42.570Z,5
2018-11-20T10:38:10.924Z,5
2018-11-20T10:43:39.411Z,5.1
2018-11-20T10:49:06.962Z,5.1
2018-11-20T10:54:40.691Z,5.1
2018-11-20T11:00:02.895Z,5
2018-11-20T11:05:35.427Z,5
2018-11-20T11:11:03.853Z,5
2018-11-20T11:16:26.625Z,5
2018-11-20T11:21:53.861Z,5
2018-11-20T11:27:26.339Z,5
2018-11-20T11:32:54.867Z,5.1
2018-11-20T11:38:23.585Z,5.1
2018-11-20T11:43:46.017Z,5.1
2018-11-20T11:49:14.238Z,5.1
2018-11-20T11:54:41.753Z,5.1
2018-11-20T12:00:14.221Z,5.1
2018-11-20T12:05:37.708Z,5.1
2018-11-20T12:11:06.172Z,5.1
2018-11-20T12:16:38.679Z,5.1
2018-11-20T12:22:01.395Z,5.1
2018-11-20T12:27:28.611Z,5.1
2018-11-20T12:32:57.350Z,5.1
2018-11-20T12:38:24.589Z,5.1
2018-11-20T12:43:52.077Z,5.1
2018-11-20T12:49:24.526Z,5.1
2018-11-20T12:54:47.046Z,5
2018-11-20T13:00:15.489Z,5
2018-11-20T13:05:43.219Z,5
2018-11-20T13:11:10.701Z,5
2018-11-20T13:16:37.971Z,5
2018-11-20T13:22:06.646Z,5
2018-11-20T13:27:39.896Z,4.9
2018-11-20T13:33:03.379Z,4.9
2018-11-20T13:38:36.849Z,4.9
2018-11-20T13:44:00.707Z,4.9
2018-11-20T13:49:27.772Z,4.9
2018-11-20T13:55:00.617Z,4.8
2018-11-20T14:00:24.025Z,4.8
2018-11-20T14:05:56.209Z,4.8
2018-11-20T14:11:18.646Z,4.8
2018-11-20T14:16:46.101Z,4.8
2018-11-20T14:22:13.586Z,4.8
2018-11-20T14:27:42.056Z,4.9
2018-11-20T14:33:10.393Z,4.9
2018-11-20T14:38:38.255Z,4.8
2018-11-20T14:44:05.530Z,4.8
2018-11-20T14:49:34.064Z,4.8
2018-11-20T14:55:02.647Z,4.8
2018-11-20T15:00:35.901Z,4.8
2018-11-20T15:05:58.367Z,4.8
2018-11-20T15:11:25.764Z,4.7
2018-11-20T15:16:59.514Z,4.7
2018-11-20T15:22:22.686Z,4.6
2018-11-20T15:27:50.345Z,4.6
2018-11-20T15:33:17.607Z,4.6
2018-11-20T15:38:46.451Z,4.7
2018-11-20T15:44:13.544Z,4.7
2018-11-20T15:49:47.014Z,4.7
2018-11-20T15:55:10.422Z,4.6
2018-11-20T16:00:38.855Z,4.7
2018-11-20T16:06:07.391Z,4.7
2018-11-20T16:11:36.085Z,4.7
2018-11-20T16:17:16.385Z,4.7
2018-11-20T16:22:32.791Z,4.8
2018-11-20T16:28:00.354Z,4.8
2018-11-20T16:33:28.676Z,4.8
2018-11-20T16:39:02.181Z,4.8
2018-11-20T16:44:24.662Z,4.9
2018-11-20T16:49:53.100Z,4.9
2018-11-20T16:55:20.573Z,4.9
2018-11-20T17:00:48.027Z,5
2018-11-20T17:06:16.757Z,5
2018-11-20T17:11:49.037Z,5
2018-11-20T17:17:16.513Z,5
2018-11-20T17:22:39.984Z,5
2018-11-20T17:28:07.430Z,5
2018-11-20T17:33:41.001Z,5
2018-11-20T17:39:03.451Z,5
2018-11-20T17:44:32.225Z,5
2018-11-20T17:49:59.402Z,5.1
2018-11-20T17:55:27.157Z,5.1
2018-11-20T18:00:54.372Z,5.1
2018-11-20T18:06:31.909Z,5.1
2018-11-20T18:11:50.368Z,5.1
2018-11-20T18:17:20.229Z,5.1
2018-11-20T18:22:46.330Z,5.1
2018-11-20T18:28:19.217Z,5.1
2018-11-20T18:33:47.364Z,5.1
2018-11-20T18:39:14.805Z,5.1
2018-11-20T18:44:38.289Z,5.1
2018-11-20T18:50:06.047Z,5.1
2018-11-20T18:55:33.558Z,5.1
2018-11-20T19:01:06.063Z,5.1
2018-11-20T19:06:28.256Z,5.1
2018-11-20T19:11:55.994Z,5.1
2018-11-20T19:17:23.199Z,5.1
2018-11-20T19:22:51.959Z,5.1
2018-11-20T19:28:19.192Z,5.1
2018-11-20T19:33:47.016Z,5.1
2018-11-20T19:39:15.207Z,5.1
2018-11-20T19:44:42.976Z,5
2018-11-20T19:50:16.188Z,5
2018-11-20T19:55:43.621Z,5
2018-11-20T20:01:06.141Z,5
2018-11-20T20:06:34.609Z,5
2018-11-20T20:12:03.355Z,5
2018-11-20T20:17:35.828Z,4.9
2018-11-20T20:22:58.007Z,4.9
2018-11-20T20:28:25.493Z,4.9
2018-11-20T20:33:53.977Z,4.9
2018-11-20T20:39:22.716Z,4.9
2018-11-20T20:44:50.169Z,4.9
2018-11-20T20:50:22.387Z,4.8
2018-11-20T20:55:44.841Z,4.8
2018-11-20T21:01:14.021Z,4.7
2018-11-20T21:06:42.021Z,4.7
2018-11-20T21:12:10.320Z,4.7
2018-11-20T21:17:37.682Z,4.7
2018-11-20T21:23:05.127Z,4.7
2018-11-20T21:28:33.808Z,4.6
2018-11-20T21:34:05.994Z,4.6
2018-11-20T21:39:29.447Z,4.6
2018-11-20T21:44:58.059Z,4.6
2018-11-20T21:50:31.444Z,4.6
2018-11-20T21:55:53.791Z,4.6
2018-11-20T22:01:22.553Z,4.6
2018-11-20T22:06:54.761Z,4.6
2018-11-20T22:12:18.240Z,4.6
2018-11-20T22:17:45.627Z,4.6
2018-11-20T22:23:14.095Z,4.6
2018-11-20T22:28:41.798Z,4.6
2018-11-20T22:34:10.243Z,4.6
2018-11-20T22:39:42.422Z,4.6
2018-11-20T22:45:09.877Z,4.6
2018-11-20T22:50:32.344Z,4.6
2018-11-20T22:56:01.349Z,4.5
2018-11-20T23:01:28.245Z,4.5
2018-11-20T23:07:00.752Z,4.5
2018-11-20T23:12:24.447Z,4.5
2018-11-20T23:17:51.870Z,4.5
2018-11-20T23:23:20.309Z,4.5
2018-11-20T23:28:52.517Z,4.5
2018-11-20T23:34:20.298Z,4.5
2018-11-20T23:39:43.549Z,4.4
2018-11-20T23:45:11.189Z,4.4
2018-11-20T23:50:39.293Z,4.4
2018-11-20T23:56:12.741Z,4.4
